Terminal Aerodrome Forecast
Issued by NWS

Home | Current Version | Previous Version | Text Only | Print | Product List | Glossary On
Versions: 1 2 3 4 5 6 7 8 9 10 11 12 13 14
227
FTUS41 KPBZ 201728
TAFAGC
TAF
KAGC 201728Z 2018/2118 25012KT P6SM SCT040
     FM202200 24009KT P6SM VCTS BKN045CB
     FM210200 23007KT P6SM SCT045=

USA.gov is the U.S. government's official web portal to all federal, state and local government web resources and services.